sensor_id;sensor_type;location;lat;lon;timestamp;P1;durP1;ratioP1;P2;durP2;ratioP2
28296;SDS011;62078;49.366;8.172;2023-02-01T19:25:07;4.18;;;1.70;;
28296;SDS011;62078;49.366;8.172;2023-02-01T19:27:36;6.20;;;1.55;;
28296;SDS011;62078;49.366;8.172;2023-02-01T19:30:02;5.75;;;1.75;;
28296;SDS011;62078;49.366;8.172;2023-02-01T19:32:28;6.72;;;1.73;;
28296;SDS011;62078;49.366;8.172;2023-02-01T19:34:54;7.50;;;2.30;;
28296;SDS011;62078;49.366;8.172;2023-02-01T19:37:20;4.55;;;1.80;;
28296;SDS011;62078;49.366;8.172;2023-02-01T19:39:45;5.20;;;1.42;;
28296;SDS011;62078;49.366;8.172;2023-02-01T19:42:11;5.70;;;1.60;;
28296;SDS011;62078;49.366;8.172;2023-02-01T19:44:38;4.82;;;1.70;;
28296;SDS011;62078;49.366;8.172;2023-02-01T19:47:04;6.30;;;1.77;;
28296;SDS011;62078;49.366;8.172;2023-02-01T19:49:29;4.20;;;1.60;;
28296;SDS011;62078;49.366;8.172;2023-02-01T19:51:55;6.68;;;1.92;;
28296;SDS011;62078;49.366;8.172;2023-02-01T19:54:21;5.72;;;1.67;;
28296;SDS011;62078;49.366;8.172;2023-02-01T19:56:47;9.65;;;1.70;;
28296;SDS011;62078;49.366;8.172;2023-02-01T19:59:15;6.32;;;2.17;;
28296;SDS011;62078;49.366;8.172;2023-02-01T20:01:42;6.05;;;1.83;;
28296;SDS011;62078;49.366;8.172;2023-02-01T20:04:12;4.55;;;1.77;;
28296;SDS011;62078;49.366;8.172;2023-02-01T20:06:41;5.82;;;1.50;;
28296;SDS011;62078;49.366;8.172;2023-02-01T20:09:15;8.02;;;1.55;;
28296;SDS011;62078;49.366;8.172;2023-02-01T20:11:42;5.75;;;1.70;;
28296;SDS011;62078;49.366;8.172;2023-02-01T20:14:08;5.40;;;1.40;;
28296;SDS011;62078;49.366;8.172;2023-02-01T20:16:34;5.03;;;1.65;;
28296;SDS011;62078;49.366;8.172;2023-02-01T20:19:01;8.35;;;1.55;;
28296;SDS011;62078;49.366;8.172;2023-02-01T20:21:26;5.00;;;1.52;;
28296;SDS011;62078;49.366;8.172;2023-02-01T20:23:52;6.03;;;1.88;;
28296;SDS011;62078;49.366;8.172;2023-02-01T20:26:18;7.10;;;1.83;;
28296;SDS011;62078;49.366;8.172;2023-02-01T20:28:47;6.15;;;1.70;;
28296;SDS011;62078;49.366;8.172;2023-02-01T20:31:13;3.88;;;1.17;;
28296;SDS011;62078;49.366;8.172;2023-02-01T20:33:39;5.45;;;1.70;;
28296;SDS011;62078;49.366;8.172;2023-02-01T20:36:06;3.35;;;1.25;;
28296;SDS011;62078;49.366;8.172;2023-02-01T20:38:32;4.75;;;1.70;;
28296;SDS011;62078;49.366;8.172;2023-02-01T20:41:01;6.10;;;2.15;;
28296;SDS011;62078;49.366;8.172;2023-02-01T20:43:28;3.63;;;1.33;;
28296;SDS011;62078;49.366;8.172;2023-02-01T20:45:54;6.05;;;1.60;;
28296;SDS011;62078;49.366;8.172;2023-02-01T20:48:19;3.88;;;1.40;;
28296;SDS011;62078;49.366;8.172;2023-02-01T20:50:45;4.70;;;1.63;;
28296;SDS011;62078;49.366;8.172;2023-02-01T20:53:11;4.22;;;1.35;;
28296;SDS011;62078;49.366;8.172;2023-02-01T20:55:37;4.28;;;1.40;;
28296;SDS011;62078;49.366;8.172;2023-02-01T20:58:03;4.60;;;1.35;;
28296;SDS011;62078;49.366;8.172;2023-02-01T21:00:28;4.20;;;1.30;;
28296;SDS011;62078;49.366;8.172;2023-02-01T21:02:55;7.65;;;1.50;;
28296;SDS011;62078;49.366;8.172;2023-02-01T21:05:21;4.43;;;1.50;;
28296;SDS011;62078;49.366;8.172;2023-02-01T21:07:46;4.68;;;1.30;;
28296;SDS011;62078;49.366;8.172;2023-02-01T21:10:12;5.20;;;1.63;;
28296;SDS011;62078;49.366;8.172;2023-02-01T21:12:38;7.10;;;1.55;;
28296;SDS011;62078;49.366;8.172;2023-02-01T21:15:04;5.65;;;1.58;;
28296;SDS011;62078;49.366;8.172;2023-02-01T21:17:30;4.60;;;1.38;;
28296;SDS011;62078;49.366;8.172;2023-02-01T21:19:56;7.43;;;1.42;;
28296;SDS011;62078;49.366;8.172;2023-02-01T21:22:22;8.50;;;2.17;;
28296;SDS011;62078;49.366;8.172;2023-02-01T21:24:48;15.18;;;1.92;;
28296;SDS011;62078;49.366;8.172;2023-02-01T21:27:14;12.35;;;1.90;;
28296;SDS011;62078;49.366;8.172;2023-02-01T21:29:40;10.07;;;2.20;;
28296;SDS011;62078;49.366;8.172;2023-02-01T21:32:06;11.80;;;1.75;;
28296;SDS011;62078;49.366;8.172;2023-02-01T21:34:33;11.00;;;1.92;;
28296;SDS011;62078;49.366;8.172;2023-02-01T21:36:59;11.40;;;1.88;;
28296;SDS011;62078;49.366;8.172;2023-02-01T21:39:25;11.88;;;2.80;;
28296;SDS011;62078;49.366;8.172;2023-02-01T21:41:53;16.35;;;2.03;;
28296;SDS011;62078;49.366;8.172;2023-02-01T21:44:38;9.00;;;2.00;;
28296;SDS011;62078;49.366;8.172;2023-02-01T21:47:04;10.35;;;1.95;;
28296;SDS011;62078;49.366;8.172;2023-02-01T21:49:32;11.15;;;2.28;;
28296;SDS011;62078;49.366;8.172;2023-02-01T21:51:58;15.65;;;2.47;;
28296;SDS011;62078;49.366;8.172;2023-02-01T21:54:24;10.00;;;1.95;;
28296;SDS011;62078;49.366;8.172;2023-02-01T21:56:50;14.45;;;2.55;;
28296;SDS011;62078;49.366;8.172;2023-02-01T21:59:16;10.15;;;1.98;;
28296;SDS011;62078;49.366;8.172;2023-02-01T22:01:42;8.38;;;1.80;;
28296;SDS011;62078;49.366;8.172;2023-02-01T22:04:08;11.45;;;2.15;;
28296;SDS011;62078;49.366;8.172;2023-02-01T22:06:35;9.88;;;2.55;;
28296;SDS011;62078;49.366;8.172;2023-02-01T22:09:03;14.00;;;2.25;;
28296;SDS011;62078;49.366;8.172;2023-02-01T22:11:30;12.30;;;2.03;;
28296;SDS011;62078;49.366;8.172;2023-02-01T22:13:56;11.55;;;2.67;;
28296;SDS011;62078;49.366;8.172;2023-02-01T22:16:22;14.05;;;2.28;;
28296;SDS011;62078;49.366;8.172;2023-02-01T22:18:48;6.95;;;1.63;;
28296;SDS011;62078;49.366;8.172;2023-02-01T22:21:16;9.57;;;1.95;;
28296;SDS011;62078;49.366;8.172;2023-02-01T22:23:42;9.95;;;2.53;;
28296;SDS011;62078;49.366;8.172;2023-02-01T22:26:09;7.15;;;2.22;;
28296;SDS011;62078;49.366;8.172;2023-02-01T22:28:37;10.93;;;1.95;;
28296;SDS011;62078;49.366;8.172;2023-02-01T22:31:05;8.43;;;2.00;;
28296;SDS011;62078;49.366;8.172;2023-02-01T22:33:32;10.15;;;2.22;;
28296;SDS011;62078;49.366;8.172;2023-02-01T22:35:59;11.18;;;2.13;;
28296;SDS011;62078;49.366;8.172;2023-02-01T22:38:25;11.13;;;2.20;;
28296;SDS011;62078;49.366;8.172;2023-02-01T22:40:54;10.68;;;1.88;;
28296;SDS011;62078;49.366;8.172;2023-02-01T22:43:24;12.43;;;2.03;;
28296;SDS011;62078;49.366;8.172;2023-02-01T22:45:51;9.18;;;2.17;;
28296;SDS011;62078;49.366;8.172;2023-02-01T22:48:17;9.23;;;2.58;;
28296;SDS011;62078;49.366;8.172;2023-02-01T22:50:42;9.32;;;2.28;;
28296;SDS011;62078;49.366;8.172;2023-02-01T22:53:09;8.20;;;1.80;;
28296;SDS011;62078;49.366;8.172;2023-02-01T22:55:35;6.85;;;2.03;;
28296;SDS011;62078;49.366;8.172;2023-02-01T22:58:01;6.30;;;1.85;;
28296;SDS011;62078;49.366;8.172;2023-02-01T23:00:27;9.95;;;2.70;;
28296;SDS011;62078;49.366;8.172;2023-02-01T23:02:54;10.30;;;2.40;;
28296;SDS011;62078;49.366;8.172;2023-02-01T23:05:19;11.95;;;2.30;;
28296;SDS011;62078;49.366;8.172;2023-02-01T23:07:46;5.90;;;2.08;;
28296;SDS011;62078;49.366;8.172;2023-02-01T23:10:13;8.60;;;1.83;;
28296;SDS011;62078;49.366;8.172;2023-02-01T23:12:41;6.50;;;1.85;;
28296;SDS011;62078;49.366;8.172;2023-02-01T23:15:07;7.90;;;2.10;;
28296;SDS011;62078;49.366;8.172;2023-02-01T23:17:33;7.95;;;2.60;;
28296;SDS011;62078;49.366;8.172;2023-02-01T23:20:00;8.73;;;1.85;;
28296;SDS011;62078;49.366;8.172;2023-02-01T23:22:28;11.10;;;2.08;;
28296;SDS011;62078;49.366;8.172;2023-02-01T23:24:54;9.05;;;1.98;;
28296;SDS011;62078;49.366;8.172;2023-02-01T23:27:19;14.52;;;2.35;;
28296;SDS011;62078;49.366;8.172;2023-02-01T23:29:45;8.38;;;1.98;;
28296;SDS011;62078;49.366;8.172;2023-02-01T23:32:11;7.70;;;2.33;;
28296;SDS011;62078;49.366;8.172;2023-02-01T23:34:37;7.40;;;1.95;;
28296;SDS011;62078;49.366;8.172;2023-02-01T23:37:04;5.75;;;2.00;;
28296;SDS011;62078;49.366;8.172;2023-02-01T23:39:30;7.72;;;2.40;;
28296;SDS011;62078;49.366;8.172;2023-02-01T23:41:57;7.68;;;2.20;;
28296;SDS011;62078;49.366;8.172;2023-02-01T23:44:24;5.53;;;1.52;;
28296;SDS011;62078;49.366;8.172;2023-02-01T23:46:49;7.20;;;2.00;;
28296;SDS011;62078;49.366;8.172;2023-02-01T23:49:15;8.30;;;2.78;;
28296;SDS011;62078;49.366;8.172;2023-02-01T23:51:42;8.18;;;2.30;;
28296;SDS011;62078;49.366;8.172;2023-02-01T23:54:09;6.32;;;1.90;;
28296;SDS011;62078;49.366;8.172;2023-02-01T23:56:37;8.48;;;1.95;;
28296;SDS011;62078;49.366;8.172;2023-02-01T23:59:06;6.90;;;2.05;;
